Time;durP1;ratioP1;P1;durP2;ratioP2;P2;SDS_P1;SDS_P2;PMS_P1;PMS_P2;Temp;Humidity;BMP_temperature;BMP_pressure;BME280_temperature;BME280_humidity;BME280_pressure;Samples;Min_cycle;Max_cycle;Signal;HPM_P1;HPM_P2
2023/03/19 00:02:00;;;;;;;0.47;0.30;;;;;;;11.00;100.00;100236.38;5039015;28;20033;-56
2023/03/19 00:04:26;;;;;;;0.30;0.30;;;;;;;10.73;100.00;100247.91;5044760;28;20052;-55
2023/03/19 00:06:52;;;;;;;0.88;0.10;;;;;;;10.36;100.00;100249.97;5047302;28;20032;-48
2023/03/19 00:09:19;;;;;;;0.10;0.10;;;;;;;10.15;100.00;100254.28;5051834;28;20024;-49
2023/03/19 00:11:45;;;;;;;0.20;0.00;;;;;;;9.88;100.00;100258.56;5041703;28;20021;-50
2023/03/19 00:14:10;;;;;;;0.35;0.13;;;;;;;9.86;100.00;100270.34;5049260;28;20025;-52
2023/03/19 00:16:35;;;;;;;0.30;0.30;;;;;;;9.80;100.00;100262.16;5046014;28;20527;-50
2023/03/19 00:19:02;;;;;;;0.10;0.10;;;;;;;9.88;100.00;100266.50;5045563;28;20055;-48
2023/03/19 00:21:28;;;;;;;0.57;0.20;;;;;;;9.98;100.00;100285.53;5043287;28;20041;-51
2023/03/19 00:23:56;;;;;;;0.20;0.20;;;;;;;9.95;100.00;100285.91;5043478;28;20123;-50
2023/03/19 00:26:21;;;;;;;0.20;0.20;;;;;;;9.82;100.00;100283.16;5045091;28;20501;-48
2023/03/19 00:28:46;;;;;;;0.82;0.82;;;;;;;9.88;100.00;100279.75;5043907;28;20028;-50
2023/03/19 00:31:15;;;;;;;0.40;0.15;;;;;;;9.92;100.00;100280.19;5038679;28;20462;-50
2023/03/19 00:33:41;;;;;;;3.15;0.40;;;;;;;9.80;100.00;100283.34;5037798;28;20117;-49
2023/03/19 00:36:08;;;;;;;0.10;0.10;;;;;;;9.91;100.00;100289.13;5049147;28;20032;-46
2023/03/19 00:38:34;;;;;;;0.05;0.05;;;;;;;9.83;100.00;100296.22;5055012;28;20044;-52
2023/03/19 00:41:00;;;;;;;2.05;0.43;;;;;;;9.72;100.00;100302.00;5044703;28;20041;-48
2023/03/19 00:43:26;;;;;;;1.20;0.47;;;;;;;9.51;100.00;100305.47;5051284;28;20447;-50
2023/03/19 00:45:51;;;;;;;0.60;0.30;;;;;;;9.31;100.00;100309.75;5047687;28;20087;-52
2023/03/19 00:48:17;;;;;;;0.68;0.38;;;;;;;9.38;100.00;100300.06;5045405;28;20078;-49
2023/03/19 00:50:42;;;;;;;1.02;0.30;;;;;;;9.51;100.00;100307.31;5047043;28;20032;-46
2023/03/19 00:53:08;;;;;;;1.02;0.30;;;;;;;9.29;100.00;100322.34;5046299;28;20078;-53
2023/03/19 00:55:33;;;;;;;0.52;0.10;;;;;;;9.28;100.00;100308.28;5040649;28;20087;-47
2023/03/19 00:57:59;;;;;;;4.78;0.30;;;;;;;9.03;100.00;100310.44;5041535;28;20022;-47
2023/03/19 01:00:25;;;;;;;2.58;0.50;;;;;;;8.90;100.00;100302.34;5046089;28;20482;-49
2023/03/19 01:02:50;;;;;;;0.70;0.32;;;;;;;8.82;100.00;100299.81;5043296;28;20321;-46
2023/03/19 01:05:15;;;;;;;1.38;0.40;;;;;;;8.67;100.00;100316.50;5041588;28;20029;-47
2023/03/19 01:07:41;;;;;;;0.30;0.30;;;;;;;8.60;100.00;100341.19;5043041;28;20455;-48
2023/03/19 01:10:07;;;;;;;1.95;0.13;;;;;;;8.73;100.00;100336.09;5043619;28;20871;-46
2023/03/19 01:12:32;;;;;;;0.17;0.15;;;;;;;8.75;100.00;100336.72;5044605;28;20025;-49
2023/03/19 01:14:58;;;;;;;5.53;0.73;;;;;;;8.63;100.00;100341.66;5045256;28;20028;-53
2023/03/19 01:17:24;;;;;;;2.05;0.10;;;;;;;8.62;100.00;100337.38;5041709;28;20403;-48
2023/03/19 01:19:49;;;;;;;3.10;1.33;;;;;;;8.64;100.00;100345.09;5043291;28;20412;-53
2023/03/19 01:22:16;;;;;;;3.88;0.65;;;;;;;8.80;100.00;100359.97;5041661;28;20025;-48
2023/03/19 01:24:41;;;;;;;1.00;0.20;;;;;;;8.81;100.00;100354.50;5044758;28;20029;-49
2023/03/19 01:27:07;;;;;;;3.60;0.22;;;;;;;8.90;100.00;100355.22;5042914;28;20112;-48
2023/03/19 01:29:33;;;;;;;1.98;0.10;;;;;;;8.90;100.00;100348.09;5042536;28;20332;-48
2023/03/19 01:31:58;;;;;;;2.72;0.30;;;;;;;9.08;100.00;100352.19;5043460;28;20505;-48
2023/03/19 01:34:23;;;;;;;1.55;0.10;;;;;;;9.12;100.00;100361.41;5042389;28;20525;-50
2023/03/19 01:36:49;;;;;;;2.97;0.40;;;;;;;9.15;100.00;100361.88;5044034;28;20367;-46
2023/03/19 01:39:14;;;;;;;1.80;0.10;;;;;;;9.18;100.00;100358.84;5044796;28;20036;-48
2023/03/19 01:41:40;;;;;;;1.48;0.40;;;;;;;9.10;100.00;100352.84;5045443;28;20424;-45
2023/03/19 01:44:25;;;;;;;0.20;0.20;;;;;;;9.08;100.00;100357.50;5043901;28;20029;-49
2023/03/19 01:46:51;;;;;;;0.63;0.57;;;;;;;9.11;100.00;100368.53;5040315;28;20051;-49
2023/03/19 01:49:18;;;;;;;0.63;0.10;;;;;;;9.05;100.00;100356.03;5041304;28;20111;-51
2023/03/19 01:51:46;;;;;;;0.43;0.13;;;;;;;9.04;100.00;100364.97;5041179;28;20025;-49
2023/03/19 01:54:15;;;;;;;1.50;0.10;;;;;;;8.84;100.00;100354.13;5044111;28;20040;-50
2023/03/19 01:56:44;;;;;;;8.23;0.70;;;;;;;8.85;100.00;100352.31;5040968;28;20047;-48
2023/03/19 01:59:14;;;;;;;8.25;1.05;;;;;;;8.83;100.00;100364.88;5042476;28;20074;-47
2023/03/19 02:01:49;;;;;;;7.22;0.50;;;;;;;8.84;100.00;100358.59;5045244;28;20470;-51
2023/03/19 02:04:15;;;;;;;2.15;0.75;;;;;;;8.82;100.00;100357.97;5040114;28;20045;-49
2023/03/19 02:06:42;;;;;;;4.85;0.35;;;;;;;8.81;100.00;100362.44;5045599;28;20051;-51
2023/03/19 02:09:10;;;;;;;4.38;0.50;;;;;;;8.87;100.00;100353.75;5044099;28;20087;-47
2023/03/19 02:11:37;;;;;;;5.32;0.10;;;;;;;8.82;100.00;100350.03;5045288;28;20363;-50
2023/03/19 02:14:02;;;;;;;0.60;0.52;;;;;;;8.78;100.00;100361.97;5047623;28;20369;-47
2023/03/19 02:16:28;;;;;;;7.57;1.08;;;;;;;8.80;100.00;100355.50;5046553;28;20037;-47
2023/03/19 02:18:54;;;;;;;4.25;0.10;;;;;;;8.73;100.00;100367.81;5044438;28;20400;-46
2023/03/19 02:21:20;;;;;;;3.47;0.30;;;;;;;8.83;100.00;100375.44;5042162;28;20028;-50
2023/03/19 02:24:10;;;;;;;3.50;1.65;;;;;;;8.88;100.00;100378.38;5049021;28;20131;-48
2023/03/19 02:26:36;;;;;;;4.57;0.10;;;;;;;9.10;100.00;100374.00;5044443;28;20048;-46
2023/03/19 02:29:03;;;;;;;8.95;1.60;;;;;;;9.11;100.00;100371.19;5042066;28;20071;-50
2023/03/19 02:31:28;;;;;;;7.88;0.85;;;;;;;9.01;100.00;100367.16;5042970;28;20040;-51
2023/03/19 02:34:05;;;;;;;0.98;0.00;;;;;;;8.99;100.00;100372.66;5046270;28;20025;-50
2023/03/19 02:36:53;;;;;;;5.03;1.90;;;;;;;9.01;100.00;100364.50;5046759;28;20029;-48
2023/03/19 02:39:35;;;;;;;3.53;0.98;;;;;;;8.93;100.00;100376.84;5043313;28;20033;-47
2023/03/19 02:42:01;;;;;;;1.70;0.25;;;;;;;8.92;100.00;100384.94;5044076;28;20025;-48
2023/03/19 02:44:26;;;;;;;2.60;0.20;;;;;;;8.70;100.00;100390.16;5043281;28;20031;-49
2023/03/19 02:46:52;;;;;;;2.00;0.80;;;;;;;8.76;100.00;100390.44;5045756;28;20454;-45
2023/03/19 02:49:17;;;;;;;0.65;0.50;;;;;;;8.62;100.00;100392.03;5046591;28;20575;-48
2023/03/19 02:51:43;;;;;;;5.72;0.88;;;;;;;8.64;100.00;100382.09;5042521;28;20025;-49
2023/03/19 02:54:08;;;;;;;1.88;0.00;;;;;;;8.66;100.00;100380.09;5047646;28;20728;-52
2023/03/19 02:56:34;;;;;;;3.38;0.43;;;;;;;8.63;100.00;100369.91;5048683;28;20017;-47
2023/03/19 02:58:59;;;;;;;2.38;0.30;;;;;;;8.58;100.00;100383.66;5044117;28;20034;-50
2023/03/19 03:01:24;;;;;;;4.68;0.17;;;;;;;8.55;100.00;100383.22;5044260;28;20029;-45
2023/03/19 03:03:50;;;;;;;2.00;0.75;;;;;;;8.47;100.00;100398.13;5045293;28;20029;-49
2023/03/19 03:06:16;;;;;;;1.15;0.30;;;;;;;8.50;100.00;100396.94;5038313;28;20068;-46
2023/03/19 03:08:42;;;;;;;0.10;0.05;;;;;;;8.52;100.00;100403.69;5050152;28;20079;-50
2023/03/19 03:11:08;;;;;;;1.10;0.28;;;;;;;8.63;100.00;100401.63;5053670;28;20057;-49
2023/03/19 03:13:33;;;;;;;4.10;0.13;;;;;;;8.62;100.00;100408.72;5046814;28;20039;-48
2023/03/19 03:15:59;;;;;;;2.20;0.43;;;;;;;8.61;100.00;100403.63;5058312;28;20436;-49
2023/03/19 03:18:24;;;;;;;3.50;0.38;;;;;;;8.54;100.00;100413.25;5046460;28;20025;-48
2023/03/19 03:20:50;;;;;;;0.38;0.32;;;;;;;8.47;100.00;100415.81;5046666;28;20029;-51
2023/03/19 03:23:15;;;;;;;1.30;0.43;;;;;;;8.41;100.00;100414.69;5048253;28;20067;-47
2023/03/19 03:25:41;;;;;;;1.48;0.20;;;;;;;8.41;100.00;100424.44;5040232;28;20111;-50
2023/03/19 03:28:06;;;;;;;1.02;0.10;;;;;;;8.43;100.00;100433.81;5046473;28;20025;-48
2023/03/19 03:30:32;;;;;;;1.85;0.32;;;;;;;8.37;100.00;100434.50;5052967;28;20421;-47
2023/03/19 03:32:57;;;;;;;0.82;0.10;;;;;;;8.48;100.00;100426.19;5047349;28;20146;-49
2023/03/19 03:35:23;;;;;;;0.73;0.00;;;;;;;8.42;100.00;100431.38;5041057;28;20029;-51
2023/03/19 03:37:50;;;;;;;3.03;0.90;;;;;;;8.34;100.00;100434.03;5045556;28;20040;-48
2023/03/19 03:40:16;;;;;;;2.58;0.28;;;;;;;8.18;100.00;100434.97;5042902;28;20066;-48
2023/03/19 03:42:42;;;;;;;2.22;0.55;;;;;;;8.00;100.00;100433.47;5047968;28;20473;-49
2023/03/19 03:45:09;;;;;;;1.35;0.10;;;;;;;7.94;100.00;100454.47;5051889;28;20080;-48
2023/03/19 03:47:36;;;;;;;0.82;0.10;;;;;;;7.82;100.00;100446.94;5041018;28;20029;-48
2023/03/19 03:50:03;;;;;;;0.40;0.25;;;;;;;7.59;100.00;100456.59;5043038;28;20151;-47
2023/03/19 03:52:32;;;;;;;0.73;0.45;;;;;;;7.55;100.00;100450.03;5039219;28;20179;-51
2023/03/19 03:54:58;;;;;;;0.68;0.10;;;;;;;7.59;100.00;100470.66;5054897;28;20067;-48
2023/03/19 03:57:24;;;;;;;1.88;0.10;;;;;;;7.62;100.00;100472.94;5046489;28;20489;-49
2023/03/19 03:59:49;;;;;;;3.92;1.17;;;;;;;7.54;100.00;100474.78;5050225;28;20045;-50
2023/03/19 04:02:14;;;;;;;0.17;0.15;;;;;;;7.53;100.00;100473.94;5048378;28;20033;-52
2023/03/19 04:04:40;;;;;;;2.10;0.00;;;;;;;7.52;100.00;100472.31;5043204;28;20486;-50
2023/03/19 04:07:05;;;;;;;3.92;0.55;;;;;;;7.50;100.00;100479.56;5047782;28;20029;-46
2023/03/19 04:09:31;;;;;;;2.42;0.00;;;;;;;7.49;100.00;100479.75;5045959;28;20040;-48
2023/03/19 04:11:57;;;;;;;2.20;0.10;;;;;;;7.50;100.00;100484.03;5043227;28;20052;-51
2023/03/19 04:14:22;;;;;;;1.33;0.52;;;;;;;7.42;100.00;100488.34;5049134;28;20037;-47
2023/03/19 04:16:48;;;;;;;1.77;0.10;;;;;;;7.38;100.00;100492.31;5048166;28;20067;-47
2023/03/19 04:19:13;;;;;;;0.30;0.03;;;;;;;7.32;100.00;100497.44;5051207;28;20167;-48
2023/03/19 04:21:38;;;;;;;3.35;0.10;;;;;;;7.24;100.00;100498.28;5045973;28;20037;-52
2023/03/19 04:24:04;;;;;;;2.42;0.25;;;;;;;7.15;100.00;100510.69;5045659;28;20036;-47
2023/03/19 04:26:30;;;;;;;3.13;0.28;;;;;;;7.08;100.00;100507.06;5044753;28;20035;-49
2023/03/19 04:28:57;;;;;;;1.10;0.32;;;;;;;6.98;100.00;100507.22;5051895;28;20029;-48
2023/03/19 04:31:23;;;;;;;3.55;0.30;;;;;;;6.83;100.00;100513.34;5046393;28;20103;-51
2023/03/19 04:33:48;;;;;;;1.60;0.30;;;;;;;6.92;100.00;100509.72;5040386;28;20081;-49
2023/03/19 04:36:13;;;;;;;1.10;0.00;;;;;;;6.88;100.00;100519.75;5052073;28;20103;-48
2023/03/19 04:38:39;;;;;;;0.52;0.20;;;;;;;6.83;100.00;100514.16;5043711;28;20037;-48
2023/03/19 04:41:04;;;;;;;0.70;0.35;;;;;;;6.74;100.00;100526.53;5047405;28;20120;-51
2023/03/19 04:43:30;;;;;;;1.27;0.35;;;;;;;6.64;100.00;100525.06;5045699;28;20071;-47
2023/03/19 04:45:55;;;;;;;0.90;0.00;;;;;;;6.66;100.00;100529.16;5048287;28;20378;-48
2023/03/19 04:48:20;;;;;;;8.88;1.65;;;;;;;6.68;100.00;100535.06;5040066;28;20095;-46
2023/03/19 04:50:50;;;;;;;3.65;0.43;;;;;;;6.58;100.00;100537.03;5041638;28;20381;-49
2023/03/19 04:53:15;;;;;;;2.13;0.10;;;;;;;6.59;100.00;100541.34;5044243;28;20490;-48
2023/03/19 04:55:41;;;;;;;1.65;0.40;;;;;;;6.57;100.00;100545.13;5046684;28;20085;-45
2023/03/19 04:58:08;;;;;;;0.65;0.10;;;;;;;6.61;100.00;100543.78;5045981;28;20060;-47
2023/03/19 05:00:33;;;;;;;1.13;0.00;;;;;;;6.61;100.00;100542.00;5050967;28;20104;-46
2023/03/19 05:02:58;;;;;;;1.90;0.10;;;;;;;6.62;100.00;100553.38;5045345;28;20146;-46
2023/03/19 05:05:24;;;;;;;0.38;0.38;;;;;;;6.66;100.00;100550.25;5046145;28;20025;-49
2023/03/19 05:07:49;;;;;;;3.67;0.82;;;;;;;6.64;100.00;100554.84;5046526;28;20039;-48
2023/03/19 05:10:15;;;;;;;3.47;0.20;;;;;;;6.59;100.00;100548.44;5045206;28;20025;-51
2023/03/19 05:12:40;;;;;;;0.95;0.10;;;;;;;6.75;100.00;100557.16;5043036;28;20482;-48
2023/03/19 05:15:06;;;;;;;2.90;0.32;;;;;;;6.63;100.00;100558.44;5046411;28;20111;-46
2023/03/19 05:17:32;;;;;;;0.20;0.10;;;;;;;6.58;100.00;100559.94;5040308;28;20139;-48
2023/03/19 05:19:58;;;;;;;1.52;0.20;;;;;;;6.55;100.00;100564.53;5044707;28;20479;-49
2023/03/19 05:22:23;;;;;;;1.33;0.10;;;;;;;6.47;100.00;100561.06;5042830;28;20029;-46
2023/03/19 05:24:49;;;;;;;1.27;0.10;;;;;;;6.42;100.00;100572.09;5045418;28;20041;-48
2023/03/19 05:27:14;;;;;;;0.15;0.13;;;;;;;6.39;100.00;100575.06;5046174;28;20549;-47
2023/03/19 05:29:39;;;;;;;2.97;0.17;;;;;;;6.44;100.00;100578.03;5046241;28;20029;-50
2023/03/19 05:32:05;;;;;;;0.45;0.00;;;;;;;6.44;100.00;100582.47;5042497;28;20029;-47
2023/03/19 05:34:31;;;;;;;3.92;0.40;;;;;;;6.33;100.00;100576.53;5048254;28;20590;-46
2023/03/19 05:36:57;;;;;;;0.28;0.00;;;;;;;6.27;100.00;100587.72;5046033;28;20060;-49
2023/03/19 05:39:23;;;;;;;1.25;1.15;;;;;;;6.14;100.00;100591.75;5045296;28;20025;-47
2023/03/19 05:41:49;;;;;;;1.00;0.00;;;;;;;5.99;100.00;100591.53;5052611;28;20088;-52
2023/03/19 05:44:14;;;;;;;2.45;0.00;;;;;;;6.08;100.00;100591.41;5047952;28;20029;-48
2023/03/19 05:46:40;;;;;;;0.13;0.00;;;;;;;6.10;100.00;100602.63;5048772;28;20061;-51
2023/03/19 05:49:05;;;;;;;4.03;0.10;;;;;;;6.08;100.00;100601.13;5051156;28;20156;-47
2023/03/19 05:51:31;;;;;;;2.80;0.10;;;;;;;5.99;100.00;100602.91;5042627;28;20036;-49
2023/03/19 05:53:56;;;;;;;1.75;0.90;;;;;;;6.04;100.00;100603.25;5052249;28;20120;-48
2023/03/19 05:56:21;;;;;;;0.73;0.05;;;;;;;6.11;100.00;100600.81;5050868;28;20063;-49
2023/03/19 05:58:47;;;;;;;0.93;0.00;;;;;;;6.07;100.00;100602.94;5047842;28;20065;-48
2023/03/19 06:01:12;;;;;;;1.80;0.38;;;;;;;6.02;100.00;100614.94;5047322;28;20323;-49
2023/03/19 06:03:38;;;;;;;0.77;0.00;;;;;;;5.93;100.00;100618.47;5047818;28;20033;-47
2023/03/19 06:06:03;;;;;;;0.63;0.35;;;;;;;5.87;100.00;100619.94;5048717;28;20128;-47
2023/03/19 06:08:29;;;;;;;2.13;0.20;;;;;;;5.84;100.00;100618.44;5051767;28;20124;-50
2023/03/19 06:10:54;;;;;;;1.05;0.03;;;;;;;5.83;100.00;100624.66;5048449;28;20033;-49
2023/03/19 06:13:20;;;;;;;0.00;0.00;;;;;;;5.86;100.00;100619.09;5053069;28;20465;-49
2023/03/19 06:15:47;;;;;;;3.40;0.20;;;;;;;5.84;100.00;100625.50;5050172;28;20021;-50
2023/03/19 06:18:12;;;;;;;3.13;0.20;;;;;;;5.93;100.00;100629.00;5049952;28;20061;-46
2023/03/19 06:20:37;;;;;;;1.00;0.10;;;;;;;5.83;100.00;100629.91;5047129;28;20477;-51
2023/03/19 06:23:03;;;;;;;2.00;0.77;;;;;;;5.77;100.00;100633.19;5049498;28;20111;-49
2023/03/19 06:25:28;;;;;;;3.90;0.22;;;;;;;5.71;100.00;100639.09;5056458;28;20604;-48
2023/03/19 06:27:53;;;;;;;0.65;0.00;;;;;;;5.65;100.00;100643.16;5047966;28;20398;-47
2023/03/19 06:30:19;;;;;;;2.20;0.13;;;;;;;5.65;100.00;100644.94;5051106;28;20060;-46
2023/03/19 06:32:44;;;;;;;0.75;0.35;;;;;;;5.62;100.00;100655.78;5047646;28;20028;-49
2023/03/19 06:35:10;;;;;;;6.70;0.90;;;;;;;5.66;100.00;100659.78;5048885;28;20028;-48
2023/03/19 06:37:36;;;;;;;0.60;0.25;;;;;;;5.66;100.00;100667.66;5046049;28;20028;-48
2023/03/19 06:40:03;;;;;;;1.85;0.08;;;;;;;5.64;100.00;100674.88;5049039;28;20029;-50
2023/03/19 06:42:29;;;;;;;1.13;0.15;;;;;;;5.60;100.00;100674.38;5050729;28;20112;-48
2023/03/19 06:44:54;;;;;;;4.05;0.00;;;;;;;5.61;100.00;100683.06;5048864;28;20196;-49
2023/03/19 06:47:20;;;;;;;0.30;0.00;;;;;;;5.59;100.00;100680.59;5050886;28;20103;-49
2023/03/19 06:49:45;;;;;;;1.55;0.20;;;;;;;5.63;100.00;100683.75;5047157;28;20414;-48
2023/03/19 06:52:11;;;;;;;0.82;0.03;;;;;;;5.71;100.00;100696.16;5048986;28;20129;-46
2023/03/19 06:54:36;;;;;;;1.15;0.22;;;;;;;5.73;100.00;100689.75;5050110;28;20025;-50
2023/03/19 06:57:01;;;;;;;1.55;0.00;;;;;;;5.69;100.00;100696.28;5056155;28;20487;-49
2023/03/19 06:59:27;;;;;;;2.03;0.17;;;;;;;5.79;100.00;100694.38;5044436;28;20029;-49
2023/03/19 07:01:52;;;;;;;3.88;0.00;;;;;;;6.05;100.00;100694.41;5046168;28;20510;-50
2023/03/19 07:04:18;;;;;;;5.65;0.38;;;;;;;6.28;100.00;100699.94;5047910;28;20032;-48
2023/03/19 07:06:43;;;;;;;0.85;0.13;;;;;;;6.57;100.00;100709.28;5053456;28;20029;-50
2023/03/19 07:09:09;;;;;;;1.13;0.00;;;;;;;6.82;100.00;100698.84;5046473;28;20051;-48
2023/03/19 07:11:34;;;;;;;3.22;1.45;;;;;;;7.09;100.00;100714.34;5048322;28;20302;-46
2023/03/19 07:14:00;;;;;;;0.30;0.00;;;;;;;7.27;100.00;100708.13;5054289;28;20036;-47
2023/03/19 07:16:25;;;;;;;0.20;0.10;;;;;;;7.34;100.00;100711.75;5047042;28;20029;-51
2023/03/19 07:18:50;;;;;;;3.85;0.00;;;;;;;7.42;100.00;100720.50;5050175;28;20052;-49
2023/03/19 07:21:16;;;;;;;1.20;0.08;;;;;;;7.42;100.00;100717.84;5046489;28;20159;-49
2023/03/19 07:23:41;;;;;;;0.65;0.10;;;;;;;7.43;100.00;100723.94;5042464;28;20049;-49
2023/03/19 07:26:07;;;;;;;2.83;0.35;;;;;;;7.53;100.00;100727.25;5049430;28;20027;-49
2023/03/19 07:28:32;;;;;;;1.40;0.32;;;;;;;7.58;100.00;100724.94;5045475;28;20387;-48
2023/03/19 07:30:57;;;;;;;2.15;0.25;;;;;;;7.72;100.00;100717.34;5052211;28;20082;-48
2023/03/19 07:33:23;;;;;;;0.90;0.10;;;;;;;7.78;100.00;100727.25;5053740;28;20377;-48
2023/03/19 07:35:48;;;;;;;4.75;0.28;;;;;;;7.92;100.00;100736.31;5043534;28;20029;-50
2023/03/19 07:38:14;;;;;;;0.88;0.00;;;;;;;8.04;100.00;100735.78;5045697;28;20037;-48
2023/03/19 07:40:40;;;;;;;10.63;1.40;;;;;;;8.07;100.00;100729.34;5053029;28;20025;-49
2023/03/19 07:43:05;;;;;;;4.07;0.45;;;;;;;8.07;100.00;100732.81;5048169;28;20029;-49
2023/03/19 07:45:31;;;;;;;2.75;0.10;;;;;;;8.18;100.00;100730.81;5046654;28;20033;-48
2023/03/19 07:47:56;;;;;;;1.08;0.10;;;;;;;8.33;100.00;100723.81;5048686;28;20036;-47
2023/03/19 07:50:21;;;;;;;3.13;0.28;;;;;;;8.24;100.00;100740.72;5047043;28;20037;-49
2023/03/19 07:52:48;;;;;;;1.92;0.10;;;;;;;8.39;100.00;100730.25;5045921;28;20040;-50
2023/03/19 07:55:14;;;;;;;1.05;0.10;;;;;;;8.53;100.00;100745.44;5047504;28;20488;-48
2023/03/19 07:57:39;;;;;;;4.90;0.15;;;;;;;8.57;100.00;100740.59;5047128;28;20033;-51
2023/03/19 08:00:06;;;;;;;0.95;0.10;;;;;;;8.52;100.00;100734.03;5049009;28;20040;-47
2023/03/19 08:02:32;;;;;;;3.60;0.10;;;;;;;8.58;100.00;100742.28;5042366;28;20056;-47
2023/03/19 08:05:00;;;;;;;0.65;0.00;;;;;;;8.66;100.00;100744.88;5054887;28;20134;-50
2023/03/19 08:07:26;;;;;;;1.02;0.10;;;;;;;8.83;100.00;100741.19;5050790;28;20056;-50
2023/03/19 08:09:52;;;;;;;3.67;0.20;;;;;;;8.91;100.00;100745.59;5045244;28;20064;-48
2023/03/19 08:12:17;;;;;;;1.55;0.17;;;;;;;8.91;100.00;100746.41;5050329;28;20064;-48
2023/03/19 08:14:42;;;;;;;4.53;1.40;;;;;;;8.74;100.00;100750.13;5047634;28;20032;-53
2023/03/19 08:17:08;;;;;;;0.32;0.17;;;;;;;8.95;100.00;100754.81;5050995;28;20148;-47
2023/03/19 08:19:33;;;;;;;1.42;0.30;;;;;;;9.09;100.00;100747.97;5050491;28;20061;-50
2023/03/19 08:21:58;;;;;;;1.55;0.00;;;;;;;9.16;100.00;100746.25;5048104;28;20021;-49
2023/03/19 08:24:24;;;;;;;4.13;1.05;;;;;;;9.29;100.00;100756.25;5052086;28;20033;-51
2023/03/19 08:26:49;;;;;;;3.35;0.88;;;;;;;9.36;100.00;100757.22;5049457;28;20025;-51
2023/03/19 08:29:15;;;;;;;5.32;0.40;;;;;;;9.30;100.00;100769.34;5050061;28;20855;-53
2023/03/19 08:31:40;;;;;;;14.25;0.65;;;;;;;9.24;100.00;100769.19;5049840;28;20359;-49
2023/03/19 08:34:09;;;;;;;8.50;0.90;;;;;;;9.37;100.00;100764.13;5046733;28;20025;-50
2023/03/19 08:36:34;;;;;;;0.75;0.10;;;;;;;9.36;100.00;100773.91;5055449;28;20070;-51
2023/03/19 08:39:00;;;;;;;1.05;0.47;;;;;;;9.45;100.00;100787.09;5046286;28;20024;-48
2023/03/19 08:41:25;;;;;;;1.60;0.30;;;;;;;9.48;100.00;100786.75;5048624;28;20466;-47
2023/03/19 08:43:50;;;;;;;1.13;0.00;;;;;;;9.49;100.00;100791.84;5049645;28;20135;-49
2023/03/19 08:46:16;;;;;;;0.85;0.20;;;;;;;9.61;100.00;100798.38;5048887;28;20060;-50
2023/03/19 08:48:42;;;;;;;0.50;0.20;;;;;;;9.70;100.00;100795.69;5047527;28;20086;-52
2023/03/19 08:51:08;;;;;;;0.85;0.05;;;;;;;9.70;100.00;100799.13;5043660;28;20024;-49
2023/03/19 08:53:35;;;;;;;4.25;0.20;;;;;;;9.71;100.00;100800.00;5042568;28;20119;-50
2023/03/19 08:56:03;;;;;;;0.90;0.82;;;;;;;9.50;100.00;100795.31;5039055;28;20026;-50
2023/03/19 08:58:29;;;;;;;1.23;0.30;;;;;;;9.52;100.00;100802.09;5042190;28;20140;-49
2023/03/19 09:01:03;;;;;;;5.35;0.38;;;;;;;9.66;100.00;100800.50;5042419;28;20055;-47
2023/03/19 09:03:28;;;;;;;6.53;1.48;;;;;;;9.69;100.00;100805.44;5042552;28;20065;-49
2023/03/19 09:05:57;;;;;;;1.35;0.05;;;;;;;9.85;100.00;100808.97;5035841;28;20033;-48
2023/03/19 09:08:23;;;;;;;2.20;0.00;;;;;;;9.85;100.00;100806.31;5040485;28;20036;-51
2023/03/19 09:10:48;;;;;;;2.60;0.17;;;;;;;9.80;100.00;100806.84;5038665;28;20033;-48
2023/03/19 09:13:13;;;;;;;5.72;0.10;;;;;;;9.82;100.00;100816.25;5044139;28;20366;-47
2023/03/19 09:15:39;;;;;;;0.28;0.20;;;;;;;9.87;100.00;100812.28;5047514;28;20312;-51
2023/03/19 09:18:04;;;;;;;4.60;0.25;;;;;;;9.75;100.00;100823.25;5053818;28;20390;-51
2023/03/19 09:20:30;;;;;;;1.83;0.00;;;;;;;9.86;100.00;100823.84;5046609;28;20436;-48
2023/03/19 09:22:55;;;;;;;3.20;0.45;;;;;;;9.95;100.00;100833.38;5045179;28;20021;-51
2023/03/19 09:25:20;;;;;;;0.85;0.20;;;;;;;9.92;100.00;100829.28;5048630;28;20116;-49
2023/03/19 09:27:46;;;;;;;3.45;0.10;;;;;;;9.76;100.00;100822.28;5046337;28;20024;-48
2023/03/19 09:30:12;;;;;;;1.15;0.20;;;;;;;9.73;100.00;100833.22;5044916;28;20060;-48
2023/03/19 09:32:37;;;;;;;2.25;0.30;;;;;;;9.71;100.00;100843.16;5048754;28;20036;-50
2023/03/19 09:35:03;;;;;;;8.75;2.30;;;;;;;9.68;100.00;100845.31;5045853;28;20036;-53
2023/03/19 09:37:28;;;;;;;6.43;0.85;;;;;;;9.73;100.00;100842.97;5050703;28;20060;-51
2023/03/19 09:39:54;;;;;;;7.50;0.47;;;;;;;9.77;100.00;100860.16;5052062;28;20052;-49
2023/03/19 09:42:38;;;;;;;5.18;0.82;;;;;;;9.88;100.00;100853.63;5052241;28;20063;-51
2023/03/19 09:45:11;;;;;;;4.90;0.10;;;;;;;10.00;100.00;100857.53;5055299;28;20049;-54
2023/03/19 09:47:38;;;;;;;4.63;1.17;;;;;;;10.19;100.00;100857.00;5052436;28;20371;-49
2023/03/19 09:50:27;;;;;;;4.03;0.20;;;;;;;10.20;100.00;100855.22;5044206;28;20025;-51
2023/03/19 09:53:02;;;;;;;0.60;0.22;;;;;;;10.11;100.00;100859.75;5048611;28;20044;-47
2023/03/19 09:55:49;;;;;;;2.60;0.63;;;;;;;10.07;100.00;100861.13;5051208;28;20485;-49
2023/03/19 09:58:18;;;;;;;4.72;0.32;;;;;;;10.19;100.00;100872.09;5050133;28;20025;-49
2023/03/19 10:00:48;;;;;;;8.40;0.35;;;;;;;10.13;100.00;100870.16;5047413;28;20029;-50
2023/03/19 10:03:40;;;;;;;5.68;0.65;;;;;;;10.14;100.00;100872.63;5048430;28;20151;-52
2023/03/19 10:06:31;;;;;;;1.58;0.30;;;;;;;10.08;100.00;100883.13;5051143;28;20044;-49
2023/03/19 10:09:11;;;;;;;1.30;0.30;;;;;;;10.24;100.00;100878.50;5050653;28;20132;-50
2023/03/19 10:11:58;;;;;;;1.13;0.32;;;;;;;10.23;100.00;100886.66;5050243;28;20021;-53
2023/03/19 10:15:01;;;;;;;4.85;0.60;;;;;;;10.18;100.00;100884.53;5046327;28;20052;-48
2023/03/19 10:17:33;;;;;;;6.10;1.45;;;;;;;10.28;100.00;100886.97;5051286;28;20130;-50
2023/03/19 10:20:08;;;;;;;3.25;0.47;;;;;;;10.28;100.00;100883.50;5052922;28;20193;-47
2023/03/19 10:22:38;;;;;;;6.00;0.05;;;;;;;10.13;100.00;100886.88;5047977;28;20218;-49
2023/03/19 10:25:10;;;;;;;3.40;1.27;;;;;;;10.17;100.00;100882.88;5052041;28;20098;-49
2023/03/19 10:27:36;;;;;;;2.90;0.30;;;;;;;10.23;100.00;100895.41;5049262;28;20024;-52
2023/03/19 10:30:11;;;;;;;2.17;0.10;;;;;;;10.25;100.00;100895.25;5044234;28;20036;-52
2023/03/19 10:32:41;;;;;;;1.52;0.10;;;;;;;10.18;100.00;100894.31;5047247;28;20047;-48
2023/03/19 10:35:29;;;;;;;2.83;1.02;;;;;;;10.07;100.00;100892.06;5043104;28;20029;-49
2023/03/19 10:37:54;;;;;;;0.50;0.20;;;;;;;10.30;100.00;100889.41;5046430;28;20047;-52
2023/03/19 10:40:47;;;;;;;4.55;0.20;;;;;;;10.37;100.00;100903.59;5045616;28;20024;-51
2023/03/19 10:43:19;;;;;;;4.03;0.13;;;;;;;10.30;100.00;100902.66;5047927;28;20033;-50
2023/03/19 10:45:45;;;;;;;1.30;0.57;;;;;;;10.35;100.00;100895.84;5046425;28;20041;-49
2023/03/19 10:48:17;;;;;;;1.13;0.05;;;;;;;10.44;100.00;100905.38;5046614;28;20028;-50
2023/03/19 10:50:49;;;;;;;3.13;0.45;;;;;;;10.36;100.00;100901.97;5047741;28;20064;-47
2023/03/19 10:53:14;;;;;;;6.45;0.50;;;;;;;10.36;100.00;100908.09;5048361;28;20024;-51
2023/03/19 10:55:59;;;;;;;2.72;0.20;;;;;;;10.31;100.00;100905.16;5049335;28;20035;-54
2023/03/19 10:58:26;;;;;;;4.38;0.38;;;;;;;10.32;100.00;100900.66;5047681;28;20090;-49
2023/03/19 11:01:04;;;;;;;3.40;0.40;;;;;;;10.61;100.00;100897.25;5047900;28;20581;-50
2023/03/19 11:03:33;;;;;;;2.25;0.60;;;;;;;11.00;100.00;100890.91;5041282;28;20043;-50
2023/03/19 11:06:13;;;;;;;3.40;0.65;;;;;;;11.27;100.00;100889.38;5041812;28;20033;-51
2023/03/19 11:08:39;;;;;;;6.97;1.13;;;;;;;11.47;100.00;100889.63;5041596;28;20417;-48
2023/03/19 11:11:04;;;;;;;5.47;0.70;;;;;;;11.55;100.00;100894.81;5046422;28;20029;-51
2023/03/19 11:13:34;;;;;;;4.07;1.17;;;;;;;11.39;100.00;100890.56;5043207;28;20029;-47
2023/03/19 11:16:00;;;;;;;3.92;0.20;;;;;;;11.53;100.00;100891.53;5043189;28;20410;-53
2023/03/19 11:18:36;;;;;;;0.60;0.10;;;;;;;11.49;100.00;100884.97;5046797;28;20024;-51
2023/03/19 11:21:26;;;;;;;0.93;0.55;;;;;;;12.06;100.00;100885.97;5048210;28;20021;-50
2023/03/19 11:23:58;;;;;;;5.55;1.13;;;;;;;12.10;100.00;100881.91;5044354;28;20790;-48
2023/03/19 11:26:27;;;;;;;2.75;0.75;;;;;;;12.20;100.00;100885.06;5042107;28;20028;-50